Time;durP1;ratioP1;P1;durP2;ratioP2;P2;SDS_P1;SDS_P2;PMS_P1;PMS_P2;Temp;Humidity;BMP_temperature;BMP_pressure;BME280_temperature;BME280_humidity;BME280_pressure;Samples;Min_cycle;Max_cycle;Signal;HPM_P1;HPM_P2
2022/05/13 00:01:17;;;;;;;9.03;8.20;;;;;;;13.86;59.78;100478.97;5124189;28;20473;-68
2022/05/13 00:03:45;;;;;;;8.67;7.87;;;;;;;13.84;58.89;100481.78;5125081;28;20450;-68
2022/05/13 00:06:12;;;;;;;8.60;7.80;;;;;;;13.82;59.30;100477.56;5124141;28;20496;-68
2022/05/13 00:08:39;;;;;;;10.37;8.03;;;;;;;13.88;59.93;100476.94;5124163;28;20434;-69
2022/05/13 00:11:07;;;;;;;8.97;8.07;;;;;;;13.84;60.15;100476.41;5117956;28;20552;-69
2022/05/13 00:13:34;;;;;;;9.17;8.30;;;;;;;13.80;60.62;100476.88;5124265;28;20477;-69
2022/05/13 00:16:01;;;;;;;8.37;7.57;;;;;;;13.78;59.96;100476.19;5123349;28;21020;-68
2022/05/13 00:18:28;;;;;;;8.67;7.90;;;;;;;13.78;61.12;100471.66;5124968;28;20434;-69
2022/05/13 00:20:56;;;;;;;9.80;8.80;;;;;;;13.81;60.64;100475.88;5124083;28;20469;-69
2022/05/13 00:23:23;;;;;;;9.30;8.40;;;;;;;13.87;61.99;100478.81;5124665;28;20962;-68
2022/05/13 00:25:49;;;;;;;10.50;9.20;;;;;;;13.85;61.75;100475.44;5123010;28;20473;-69
2022/05/13 00:28:16;;;;;;;11.47;8.20;;;;;;;13.78;61.64;100478.88;5124670;28;20510;-68
2022/05/13 00:30:48;;;;;;;10.50;8.37;;;;;;;13.82;61.71;100477.56;5123798;28;20580;-70
2022/05/13 00:33:15;;;;;;;11.70;8.60;;;;;;;13.79;61.97;100478.72;5114599;28;20482;-69
2022/05/13 00:35:42;;;;;;;9.50;8.53;;;;;;;13.80;61.93;100476.88;5123801;28;20867;-68
2022/05/13 00:38:10;;;;;;;11.13;8.07;;;;;;;13.78;61.96;100468.97;5124217;28;20449;-69
2022/05/13 00:40:37;;;;;;;8.57;7.87;;;;;;;13.79;61.85;100470.66;5123201;28;20486;-69
2022/05/13 00:43:06;;;;;;;8.93;7.63;;;;;;;13.78;62.05;100471.66;5123571;28;20449;-71
2022/05/13 00:45:33;;;;;;;8.00;7.30;;;;;;;13.74;62.16;100465.75;5122639;28;20487;-71
2022/05/13 00:48:00;;;;;;;8.73;7.83;;;;;;;13.74;61.57;100457.69;5124412;28;20438;-70
2022/05/13 00:50:30;;;;;;;7.77;6.97;;;;;;;13.74;62.01;100460.38;5123130;28;20466;-70
2022/05/13 00:52:56;;;;;;;7.80;6.87;;;;;;;13.73;61.91;100461.41;5113562;28;20581;-69
2022/05/13 00:55:30;;;;;;;8.70;6.57;;;;;;;13.79;62.27;100457.22;5122233;28;20457;-69
2022/05/13 00:57:57;;;;;;;8.40;6.77;;;;;;;13.78;63.01;100452.00;5123295;28;20434;-68
2022/05/13 01:00:24;;;;;;;8.80;7.90;;;;;;;13.70;63.50;100452.81;5123073;28;20441;-68
2022/05/13 01:02:50;;;;;;;7.97;6.97;;;;;;;13.70;63.46;100448.25;5124081;28;20438;-69
2022/05/13 01:05:19;;;;;;;10.17;5.97;;;;;;;13.62;63.35;100444.69;5122987;28;20499;-69
2022/05/13 01:07:46;;;;;;;7.70;7.00;;;;;;;13.56;64.10;100444.28;5123756;28;20450;-68
2022/05/13 01:10:16;;;;;;;10.50;8.43;;;;;;;13.51;64.61;100438.53;5122033;28;20473;-72
2022/05/13 01:12:49;;;;;;;7.00;6.30;;;;;;;13.48;64.90;100454.97;5123698;28;20505;-72
2022/05/13 01:15:19;;;;;;;8.00;6.60;;;;;;;13.33;64.21;100441.25;5116239;28;20449;-71
2022/05/13 01:20:32;;;;;;;8.30;6.00;;;;;;;13.34;63.68;100442.09;5123106;28;20487;-71
2022/05/13 01:23:02;;;;;;;6.57;5.60;;;;;;;13.41;63.57;100439.63;5123246;28;20441;-71
2022/05/13 01:25:33;;;;;;;6.27;5.67;;;;;;;13.46;64.20;100430.09;5122018;27;20485;-71
2022/05/13 01:28:08;;;;;;;8.10;6.00;;;;;;;13.51;64.67;100437.72;5123453;28;20426;-72
2022/05/13 01:30:35;;;;;;;7.53;6.83;;;;;;;13.49;65.17;100432.50;5120202;28;20469;-71
2022/05/13 01:33:01;;;;;;;11.20;6.50;;;;;;;13.46;65.46;100438.16;5111894;28;20604;-71
2022/05/13 01:35:28;;;;;;;7.73;6.63;;;;;;;13.39;65.27;100433.59;5121663;28;20476;-71
2022/05/13 01:37:55;;;;;;;11.47;7.87;;;;;;;13.34;65.98;100442.91;5121729;28;20446;-70
2022/05/13 01:40:23;;;;;;;8.37;7.57;;;;;;;13.26;66.66;100431.22;5120780;28;20577;-71
2022/05/13 01:42:54;;;;;;;8.23;7.53;;;;;;;13.14;67.54;100428.78;5123034;28;20438;-71
2022/05/13 01:45:21;;;;;;;9.47;8.57;;;;;;;13.06;68.32;100433.22;5120768;28;20633;-71
2022/05/13 01:47:48;;;;;;;10.20;9.30;;;;;;;12.88;68.60;100430.50;5122868;28;20454;-71
2022/05/13 01:50:15;;;;;;;8.00;7.20;;;;;;;12.80;68.14;100429.44;5120971;28;20549;-71
2022/05/13 01:52:42;;;;;;;10.33;7.60;;;;;;;12.84;66.01;100429.97;5119153;28;20450;-71
2022/05/13 01:55:10;;;;;;;14.43;6.17;;;;;;;12.77;65.95;100421.69;5119270;28;20527;-71
2022/05/13 01:57:38;;;;;;;7.50;6.00;;;;;;;12.72;65.94;100426.66;5122171;28;20476;-70
2022/05/13 02:00:07;;;;;;;8.80;5.03;;;;;;;12.70;65.39;100430.50;5122523;28;20442;-70
2022/05/13 02:03:43;;;;;;;8.03;5.00;;;;;;;12.64;63.98;100426.56;5122045;28;20863;-70
2022/05/13 02:05:20;;;;;;;11.00;5.27;;;;;;;12.62;63.94;100433.94;5120482;28;20901;-70
2022/05/13 02:07:46;;;;;;;8.33;5.80;;;;;;;12.59;63.06;100432.38;5122158;28;20453;-69
2022/05/13 02:10:13;;;;;;;9.27;5.57;;;;;;;12.68;63.15;100429.81;5119880;28;20458;-70
2022/05/13 02:12:41;;;;;;;6.90;6.07;;;;;;;12.74;62.70;100432.72;5121982;28;20446;-69
2022/05/13 02:15:09;;;;;;;7.80;5.87;;;;;;;12.86;62.14;100436.03;5121540;28;20841;-69
2022/05/13 02:17:36;;;;;;;7.37;5.80;;;;;;;12.94;61.75;100432.59;5121518;28;20975;-69
2022/05/13 02:20:04;;;;;;;11.33;7.10;;;;;;;12.92;62.28;100440.81;5121709;28;20508;-69
2022/05/13 02:22:31;;;;;;;13.43;7.07;;;;;;;12.89;61.66;100432.22;5120400;28;20474;-69
2022/05/13 02:24:57;;;;;;;10.20;7.97;;;;;;;13.00;60.34;100435.53;5121150;28;20430;-69
2022/05/13 02:27:24;;;;;;;15.03;9.50;;;;;;;13.07;59.95;100435.78;5121541;28;20478;-69
2022/05/13 02:29:53;;;;;;;9.67;8.73;;;;;;;13.15;60.48;100449.25;5121140;28;20862;-69
2022/05/13 02:32:20;;;;;;;10.20;9.20;;;;;;;13.12;60.27;100441.53;5121376;28;20474;-69
2022/05/13 02:34:48;;;;;;;11.87;10.67;;;;;;;13.05;60.00;100437.75;5120889;28;20474;-70
2022/05/13 02:37:15;;;;;;;10.70;9.60;;;;;;;13.04;60.88;100433.38;5120309;28;20502;-70
2022/05/13 02:39:41;;;;;;;11.83;10.73;;;;;;;13.13;60.84;100440.50;5115481;28;20478;-69
2022/05/13 02:42:09;;;;;;;13.50;11.57;;;;;;;13.17;60.95;100449.09;5103272;28;20474;-69
2022/05/13 02:44:37;;;;;;;12.23;11.03;;;;;;;13.10;61.78;100440.81;5102642;28;20439;-69
2022/05/13 02:47:06;;;;;;;14.43;12.90;;;;;;;13.04;61.19;100443.25;5116662;28;20481;-70
2022/05/13 02:49:32;;;;;;;14.47;11.90;;;;;;;13.09;60.91;100436.44;5109371;28;20908;-70
2022/05/13 02:51:59;;;;;;;13.53;12.13;;;;;;;13.05;60.91;100435.06;5102280;28;20502;-69
2022/05/13 02:54:26;;;;;;;12.33;11.10;;;;;;;12.96;61.39;100438.66;5101953;28;20482;-69
2022/05/13 02:56:53;;;;;;;16.47;11.17;;;;;;;12.89;61.31;100435.72;5101100;28;20489;-69
2022/05/13 02:59:20;;;;;;;12.20;10.63;;;;;;;12.88;61.06;100435.88;5118756;28;20460;-68
2022/05/13 03:01:47;;;;;;;11.87;10.60;;;;;;;12.88;61.12;100436.75;5111171;28;20483;-69
2022/05/13 03:04:16;;;;;;;11.80;9.73;;;;;;;12.84;61.04;100437.19;5112880;28;20447;-69
2022/05/13 03:06:46;;;;;;;13.63;10.70;;;;;;;12.76;61.29;100430.75;5091992;28;20489;-68
2022/05/13 03:09:15;;;;;;;12.83;10.27;;;;;;;12.71;61.60;100429.50;5119779;28;20434;-69
2022/05/13 03:11:42;;;;;;;12.37;9.93;;;;;;;12.79;60.99;100427.75;5118889;28;20478;-68
2022/05/13 03:14:09;;;;;;;13.93;10.37;;;;;;;12.71;61.27;100429.50;5118359;28;20488;-68
2022/05/13 03:16:37;;;;;;;11.60;9.40;;;;;;;12.86;60.64;100433.34;5106381;28;20470;-68
2022/05/13 03:19:04;;;;;;;13.43;9.60;;;;;;;12.73;60.79;100432.88;5119470;28;20984;-68
2022/05/13 03:21:35;;;;;;;12.47;9.70;;;;;;;12.74;61.28;100427.38;5106696;28;20486;-68
2022/05/13 03:24:02;;;;;;;12.77;9.83;;;;;;;12.75;61.15;100426.34;5101080;28;20439;-69
2022/05/13 03:26:32;;;;;;;14.17;10.60;;;;;;;12.68;61.37;100425.28;5104774;28;20475;-68
2022/05/13 03:28:59;;;;;;;9.70;8.60;;;;;;;12.60;61.53;100425.16;5101071;28;20438;-69
2022/05/13 03:31:26;;;;;;;9.87;8.90;;;;;;;12.59;61.25;100418.97;5100246;28;20529;-69
2022/05/13 03:33:53;;;;;;;10.97;7.90;;;;;;;12.59;61.45;100424.34;5101042;28;20478;-69
2022/05/13 03:36:20;;;;;;;10.10;8.10;;;;;;;12.65;61.22;100424.72;5109614;28;20536;-69
2022/05/13 03:38:48;;;;;;;9.30;8.03;;;;;;;12.57;61.19;100425.50;5104068;28;20458;-69
2022/05/13 03:41:15;;;;;;;10.20;7.90;;;;;;;12.64;60.92;100426.56;5114238;27;20478;-70
2022/05/13 03:43:42;;;;;;;10.17;7.87;;;;;;;12.61;60.77;100427.69;5120695;28;20617;-69
2022/05/13 03:46:09;;;;;;;7.10;6.50;;;;;;;12.74;60.48;100427.38;5120223;28;20469;-69
2022/05/13 03:48:36;;;;;;;8.20;7.40;;;;;;;12.53;60.50;100424.06;5120329;28;20446;-69
2022/05/13 03:51:09;;;;;;;9.70;6.73;;;;;;;12.58;60.57;100419.13;5118892;28;20474;-69
2022/05/13 03:53:36;;;;;;;12.53;7.87;;;;;;;12.54;60.69;100418.56;5120727;28;20518;-68
2022/05/13 03:56:05;;;;;;;7.67;6.97;;;;;;;12.89;59.59;100416.13;5119078;28;20469;-69
2022/05/13 03:58:32;;;;;;;10.07;6.57;;;;;;;13.21;58.46;100422.78;5120593;28;20426;-68
2022/05/13 04:00:58;;;;;;;8.37;6.37;;;;;;;13.42;57.62;100422.50;5120267;28;20539;-69
2022/05/13 04:03:25;;;;;;;9.30;6.50;;;;;;;13.53;57.48;100423.09;5120914;28;20454;-70
2022/05/13 04:11:22;;;;;;;7.03;5.10;;;;;;;13.72;56.58;100419.41;5122779;28;20484;-68
2022/05/13 04:16:33;;;;;;;9.50;5.33;;;;;;;14.54;54.74;100424.38;5123208;28;20828;-69
2022/05/13 04:19:00;;;;;;;5.60;4.60;;;;;;;15.01;52.72;100423.88;5123730;28;20434;-69
2022/05/13 04:21:29;;;;;;;7.37;5.40;;;;;;;15.55;50.80;100420.72;5121373;28;20477;-69
2022/05/13 04:23:58;;;;;;;9.83;4.60;;;;;;;14.98;52.04;100424.22;5122573;28;20443;-70
2022/05/13 04:26:26;;;;;;;6.70;4.83;;;;;;;14.20;54.21;100427.94;5121179;27;20488;-70
2022/05/13 04:28:54;;;;;;;7.83;4.97;;;;;;;13.71;55.23;100435.66;5126195;27;20437;-69
2022/05/13 04:31:24;;;;;;;9.43;4.60;;;;;;;13.72;55.29;100421.25;5125775;27;20508;-69
2022/05/13 04:33:51;;;;;;;10.57;4.47;;;;;;;13.34;56.72;100431.34;5124763;28;20457;-70
2022/05/13 04:36:19;;;;;;;9.93;5.23;;;;;;;13.10;57.65;100435.44;5127502;27;20478;-70
2022/05/13 04:38:46;;;;;;;8.70;4.83;;;;;;;13.24;57.15;100442.13;5130291;27;20487;-70
2022/05/13 04:44:00;;;;;;;8.07;5.20;;;;;;;12.96;57.96;100436.81;5121934;27;20802;-71
2022/05/13 04:46:27;;;;;;;4.93;4.50;;;;;;;13.02;57.80;100435.38;5124094;27;20470;-70
2022/05/13 04:48:54;;;;;;;6.07;4.13;;;;;;;12.98;57.03;100428.59;5133473;27;20513;-69
2022/05/13 04:51:21;;;;;;;6.63;4.10;;;;;;;13.25;56.96;100434.94;5126675;27;20492;-69
2022/05/13 04:53:51;;;;;;;12.50;4.47;;;;;;;13.21;57.14;100426.34;5144591;27;20486;-70
2022/05/13 04:56:36;;;;;;;5.50;3.77;;;;;;;13.56;56.08;100433.56;5125638;27;20476;-71
2022/05/13 04:59:05;;;;;;;6.97;4.10;;;;;;;13.62;56.02;100423.19;5120143;28;20513;-69
2022/05/13 05:01:34;;;;;;;7.23;3.57;;;;;;;15.05;51.28;100422.56;5122140;27;20472;-69
2022/05/13 05:04:02;;;;;;;8.60;4.00;;;;;;;15.55;49.94;100425.28;5104941;27;20454;-71
2022/05/13 05:06:29;;;;;;;8.00;3.60;;;;;;;15.20;51.03;100432.66;5109661;28;20478;-69
2022/05/13 05:08:57;;;;;;;5.70;3.27;;;;;;;14.32;53.19;100429.34;5122406;28;20427;-70
2022/05/13 05:11:24;;;;;;;6.80;3.90;;;;;;;13.63;55.65;100441.00;5120427;28;20508;-71
2022/05/13 05:13:52;;;;;;;8.23;3.97;;;;;;;13.61;56.50;100446.53;5122334;28;20448;-67
2022/05/13 05:16:22;;;;;;;8.90;4.27;;;;;;;13.50;56.90;100444.91;5122171;28;20527;-69
2022/05/13 05:18:49;;;;;;;7.67;3.60;;;;;;;13.25;57.93;100438.44;5120607;28;20473;-70
2022/05/13 05:21:16;;;;;;;6.93;3.93;;;;;;;13.46;57.26;100442.69;5120928;28;20481;-69
2022/05/13 05:23:44;;;;;;;9.80;3.93;;;;;;;13.37;58.01;100455.22;5119663;28;20454;-69
2022/05/13 05:26:12;;;;;;;7.37;3.40;;;;;;;13.30;58.57;100462.16;5099721;28;20463;-69
2022/05/13 05:28:39;;;;;;;7.50;3.77;;;;;;;13.96;56.35;100454.66;5101435;28;20427;-69
2022/05/13 05:31:07;;;;;;;7.70;3.50;;;;;;;14.24;55.54;100464.25;5100771;28;20497;-70
2022/05/13 05:33:36;;;;;;;8.90;3.90;;;;;;;15.72;52.08;100469.25;5101182;28;20457;-70
2022/05/13 05:36:04;;;;;;;5.13;3.10;;;;;;;16.13;50.26;100466.53;5100828;28;20475;-70
2022/05/13 05:38:31;;;;;;;8.87;3.30;;;;;;;16.07;50.86;100461.81;5101559;28;20495;-71
2022/05/13 05:40:59;;;;;;;8.93;3.40;;;;;;;15.40;51.75;100466.38;5099630;28;20474;-70
2022/05/13 05:43:27;;;;;;;6.03;2.87;;;;;;;15.31;51.48;100470.06;5101969;28;20470;-70
2022/05/13 05:45:54;;;;;;;4.70;2.37;;;;;;;15.55;51.73;100482.69;5114509;27;21128;-69
2022/05/13 05:48:22;;;;;;;6.80;3.40;;;;;;;15.03;53.01;100486.50;5137447;27;20445;-69
2022/05/13 05:50:52;;;;;;;11.03;3.10;;;;;;;14.48;54.60;100481.53;5141969;27;20493;-70
2022/05/13 05:57:13;;;;;;;8.63;4.10;;;;;;;14.36;55.10;100491.72;5142844;27;20662;-69
2022/05/13 05:58:52;;;;;;;5.90;3.37;;;;;;;13.96;55.52;100498.53;5121296;28;20449;-69
2022/05/13 06:01:20;;;;;;;4.83;2.80;;;;;;;13.65;57.25;100484.66;5120066;28;20485;-70
2022/05/13 06:03:46;;;;;;;4.40;2.87;;;;;;;13.91;56.38;100482.84;5121720;28;20446;-70
2022/05/13 06:06:15;;;;;;;5.30;2.90;;;;;;;14.28;55.08;100486.28;5121344;28;20468;-71
2022/05/13 06:08:42;;;;;;;11.20;3.33;;;;;;;14.07;55.52;100489.34;5121529;28;20430;-70
2022/05/13 06:11:10;;;;;;;4.83;2.80;;;;;;;14.22;54.49;100487.78;5119590;27;20465;-70
2022/05/13 06:13:37;;;;;;;5.50;2.23;;;;;;;13.72;55.67;100480.34;5126223;27;20452;-70
2022/05/13 06:16:07;;;;;;;7.27;2.43;;;;;;;13.48;56.86;100494.41;5141446;27;20969;-70
2022/05/13 06:18:35;;;;;;;6.07;3.20;;;;;;;13.29;56.78;100495.38;5141459;27;20456;-70
2022/05/13 06:21:02;;;;;;;3.87;2.10;;;;;;;13.39;56.44;100498.88;5131875;27;20468;-70
2022/05/13 06:23:30;;;;;;;5.03;2.37;;;;;;;13.40;56.88;100492.47;5121076;28;20446;-71
2022/05/13 06:25:57;;;;;;;6.10;2.30;;;;;;;13.27;57.81;100511.63;5116775;28;20476;-71
2022/05/13 06:28:24;;;;;;;5.07;1.93;;;;;;;13.31;57.58;100509.47;5099633;28;20455;-70
2022/05/13 06:30:51;;;;;;;9.80;2.80;;;;;;;13.13;58.39;100515.69;5105260;28;20484;-70
2022/05/13 06:33:18;;;;;;;8.27;2.53;;;;;;;13.24;57.84;100509.25;5117882;28;20529;-71
2022/05/13 06:35:44;;;;;;;8.10;3.00;;;;;;;13.14;58.64;100513.81;5119481;28;21126;-70
2022/05/13 06:38:16;;;;;;;5.73;2.70;;;;;;;13.16;57.83;100518.06;5120886;28;20741;-70
2022/05/13 06:40:44;;;;;;;4.53;2.63;;;;;;;13.25;57.95;100524.38;5118793;28;20480;-70
2022/05/13 06:43:11;;;;;;;8.50;3.10;;;;;;;13.06;58.66;100533.38;5117050;28;20965;-70
2022/05/13 06:45:38;;;;;;;5.33;2.90;;;;;;;13.09;58.85;100524.16;5099236;28;20486;-70
2022/05/13 06:48:06;;;;;;;9.30;3.57;;;;;;;13.30;58.76;100526.63;5133771;27;20459;-70
2022/05/13 06:50:33;;;;;;;8.60;3.50;;;;;;;13.31;58.97;100522.91;5106001;27;20514;-70
2022/05/13 06:53:00;;;;;;;5.23;3.10;;;;;;;13.32;59.23;100525.47;5101239;28;20931;-70
2022/05/13 06:55:28;;;;;;;10.13;3.90;;;;;;;13.40;59.03;100535.44;5098846;28;20479;-70
2022/05/13 06:57:56;;;;;;;6.60;3.13;;;;;;;13.26;59.34;100531.44;5101486;28;20508;-69
2022/05/13 07:00:23;;;;;;;10.03;3.57;;;;;;;13.35;59.94;100549.34;5110208;28;20452;-70
2022/05/13 07:02:50;;;;;;;9.10;3.23;;;;;;;13.50;59.35;100540.75;5120727;28;20529;-70
2022/05/13 07:05:19;;;;;;;6.87;4.23;;;;;;;13.31;60.00;100544.38;5120533;28;20514;-70
2022/05/13 07:07:46;;;;;;;7.53;3.63;;;;;;;13.33;60.58;100551.34;5120482;28;20468;-70
2022/05/13 07:10:13;;;;;;;8.70;4.17;;;;;;;13.38;61.25;100545.50;5111329;27;20485;-71
2022/05/13 07:12:40;;;;;;;7.23;4.40;;;;;;;13.56;60.44;100537.47;5120714;28;20442;-71
2022/05/13 07:15:11;;;;;;;9.17;4.77;;;;;;;13.45;61.03;100543.06;5127000;28;20491;-70
2022/05/13 07:17:38;;;;;;;8.07;4.43;;;;;;;13.40;61.20;100543.50;5140137;27;20445;-69
2022/05/13 07:20:06;;;;;;;11.43;4.57;;;;;;;13.72;60.78;100544.84;5141384;28;20445;-70
2022/05/13 07:22:34;;;;;;;8.37;5.10;;;;;;;14.11;60.02;100534.59;5132923;28;20472;-70
2022/05/13 07:25:00;;;;;;;12.10;5.40;;;;;;;13.77;60.43;100533.66;5101271;28;20469;-70
2022/05/13 07:27:27;;;;;;;13.30;6.17;;;;;;;13.41;61.47;100539.84;5102348;28;20992;-69
2022/05/13 07:29:54;;;;;;;12.80;6.13;;;;;;;13.54;61.56;100542.13;5100290;28;20476;-69
2022/05/13 07:32:22;;;;;;;16.07;5.80;;;;;;;13.54;61.55;100543.00;5109128;28;20470;-70
2022/05/13 07:34:49;;;;;;;15.20;6.03;;;;;;;13.47;61.90;100547.31;5120501;28;20492;-69
2022/05/13 07:37:16;;;;;;;13.90;5.13;;;;;;;13.32;62.09;100544.28;5119356;28;20462;-70
2022/05/13 07:42:27;;;;;;;10.27;5.40;;;;;;;13.45;61.51;100557.31;5120305;28;20545;-70
2022/05/13 07:44:53;;;;;;;8.10;5.33;;;;;;;13.91;60.62;100559.97;5123031;28;20442;-70
2022/05/13 07:47:22;;;;;;;10.60;5.00;;;;;;;14.30;59.47;100562.28;5114186;28;20883;-71
2022/05/13 07:49:49;;;;;;;13.93;5.67;;;;;;;14.85;57.72;100569.22;5119443;28;20442;-71
2022/05/13 07:52:15;;;;;;;13.17;4.60;;;;;;;15.28;56.67;100561.16;5124045;28;20474;-71
2022/05/13 07:54:42;;;;;;;11.27;4.80;;;;;;;17.87;49.90;100565.56;5123610;28;20476;-70
2022/05/13 07:57:09;;;;;;;9.33;4.87;;;;;;;16.71;51.50;100569.78;5123625;28;20474;-71
2022/05/13 08:00:24;;;;;;;13.30;4.83;;;;;;;17.80;49.19;100565.41;5119084;28;20536;-70
2022/05/13 08:02:25;;;;;;;6.80;4.40;;;;;;;19.13;45.12;100563.09;5122702;28;20527;-70
2022/05/13 08:04:52;;;;;;;9.23;3.90;;;;;;;19.34;44.45;100555.06;5119579;28;20475;-70
2022/05/13 08:07:19;;;;;;;8.97;4.50;;;;;;;19.85;43.17;100559.56;5117750;28;20473;-70
2022/05/13 08:09:46;;;;;;;9.93;3.47;;;;;;;21.07;40.53;100565.69;5123621;28;20437;-72
2022/05/13 08:12:12;;;;;;;10.90;4.40;;;;;;;21.27;39.48;100576.66;5122137;28;20488;-71
2022/05/13 08:14:40;;;;;;;12.37;4.60;;;;;;;21.01;39.80;100574.66;5121267;28;20445;-70
2022/05/13 08:17:07;;;;;;;10.17;4.17;;;;;;;21.20;38.67;100573.09;5122635;28;20493;-71
2022/05/13 08:19:35;;;;;;;7.80;4.20;;;;;;;22.64;36.79;100568.31;5123223;28;20438;-69
2022/05/13 08:22:02;;;;;;;9.60;4.23;;;;;;;21.13;38.98;100566.78;5122167;28;20484;-69
2022/05/13 08:24:28;;;;;;;6.07;3.40;;;;;;;21.80;37.28;100565.97;5122698;28;20454;-68
2022/05/13 08:26:55;;;;;;;11.83;4.37;;;;;;;23.50;35.51;100565.31;5119606;28;20526;-70
2022/05/13 08:29:22;;;;;;;6.40;4.27;;;;;;;20.43;40.16;100570.31;5102586;28;20435;-69
2022/05/13 08:31:50;;;;;;;7.43;3.40;;;;;;;21.50;38.33;100567.38;5102930;28;20467;-69
2022/05/13 08:34:17;;;;;;;9.83;3.77;;;;;;;22.02;37.42;100563.06;5102784;28;20443;-69
2022/05/13 08:36:45;;;;;;;8.90;3.53;;;;;;;21.66;38.40;100566.97;5110055;28;21167;-69
2022/05/13 08:39:12;;;;;;;9.40;4.07;;;;;;;22.78;36.38;100560.94;5122449;28;20458;-70
2022/05/13 08:41:56;;;;;;;11.43;3.90;;;;;;;21.00;39.02;100576.53;5122687;28;20473;-68
2022/05/13 08:44:23;;;;;;;11.00;3.97;;;;;;;21.21;38.51;100563.88;5107786;28;20443;-69
2022/05/13 08:46:57;;;;;;;9.17;3.80;;;;;;;22.82;37.13;100568.47;5101568;28;20528;-70
2022/05/13 08:49:25;;;;;;;8.93;3.63;;;;;;;20.81;38.97;100567.22;5102588;28;20438;-69
2022/05/13 08:52:04;;;;;;;7.73;3.83;;;;;;;19.85;41.75;100567.72;5121115;28;21020;-70
2022/05/13 08:54:33;;;;;;;5.87;3.53;;;;;;;20.85;38.71;100581.28;5121720;28;20442;-69
2022/05/13 08:57:01;;;;;;;6.43;3.40;;;;;;;21.77;37.89;100571.81;5109096;28;20494;-69
2022/05/13 08:59:32;;;;;;;5.80;3.57;;;;;;;22.72;36.13;100582.56;5102582;28;20940;-70
2022/05/13 09:02:02;;;;;;;5.37;2.37;;;;;;;21.31;37.96;100566.22;5101189;28;20621;-70
2022/05/13 09:04:33;;;;;;;6.37;3.23;;;;;;;19.47;41.74;100572.50;5102178;28;20971;-70
2022/05/13 09:07:04;;;;;;;6.10;3.20;;;;;;;19.30;42.13;100570.00;5107706;28;20471;-69
2022/05/13 09:09:31;;;;;;;6.07;2.90;;;;;;;18.55;44.00;100574.56;5113923;28;20441;-69
2022/05/13 09:12:02;;;;;;;7.70;3.80;;;;;;;19.27;42.01;100573.13;5107646;28;20462;-70
2022/05/13 09:14:35;;;;;;;4.93;2.97;;;;;;;18.16;44.59;100572.09;5105390;28;20680;-69
2022/05/13 09:17:21;;;;;;;5.87;3.37;;;;;;;18.06;44.38;100575.88;5116829;28;20474;-69
2022/05/13 09:19:54;;;;;;;6.67;2.70;;;;;;;17.79;46.01;100579.09;5113587;28;20439;-69
2022/05/13 09:22:22;;;;;;;3.20;2.80;;;;;;;18.30;44.60;100563.16;5106393;28;20772;-69
2022/05/13 09:24:49;;;;;;;7.17;2.43;;;;;;;18.07;44.86;100574.00;5119034;28;20492;-69
2022/05/13 09:27:16;;;;;;;8.33;2.30;;;;;;;17.48;44.67;100575.41;5119041;27;20474;-68
2022/05/13 09:29:44;;;;;;;4.10;1.80;;;;;;;17.50;45.02;100573.38;5107311;28;20446;-68
2022/05/13 09:32:15;;;;;;;6.40;2.97;;;;;;;16.89;45.98;100578.56;5119236;28;20495;-68
2022/05/13 09:34:49;;;;;;;3.90;2.90;;;;;;;17.31;45.48;100569.25;5119765;28;20475;-69
2022/05/13 09:37:20;;;;;;;6.70;2.63;;;;;;;17.48;45.86;100567.31;5119384;28;20481;-69
2022/05/13 09:39:50;;;;;;;7.10;2.83;;;;;;;18.96;44.40;100571.47;5111690;28;20646;-70
2022/05/13 09:42:26;;;;;;;6.10;2.90;;;;;;;17.87;44.41;100573.66;5108134;28;20484;-69
2022/05/13 09:45:12;;;;;;;7.30;2.57;;;;;;;18.21;44.19;100578.63;5106677;28;20459;-69
2022/05/13 09:47:39;;;;;;;7.37;2.67;;;;;;;18.04;43.70;100571.69;5112455;28;20664;-68
2022/05/13 09:50:18;;;;;;;5.10;2.67;;;;;;;17.21;45.22;100567.78;5111604;28;20450;-68
2022/05/13 09:52:44;;;;;;;6.07;2.40;;;;;;;17.66;45.27;100574.28;5110427;28;20446;-69
2022/05/13 09:55:17;;;;;;;5.60;2.60;;;;;;;17.64;45.29;100558.25;5110549;28;20455;-69
2022/05/13 09:57:44;;;;;;;5.40;2.20;;;;;;;18.19;44.36;100571.72;5105745;28;20447;-68
2022/05/13 10:00:15;;;;;;;7.07;2.13;;;;;;;17.90;45.45;100576.03;5107210;28;20497;-70
2022/05/13 10:02:43;;;;;;;7.60;2.20;;;;;;;17.94;44.52;100573.78;5114347;28;20481;-69
2022/05/13 10:05:17;;;;;;;5.83;2.67;;;;;;;17.41;45.97;100573.56;5107931;28;20439;-69
2022/05/13 10:07:54;;;;;;;5.97;2.30;;;;;;;18.32;43.41;100576.53;5113858;28;20446;-68
2022/05/13 10:15:59;;;;;;;6.10;1.90;;;;;;;17.19;44.38;100575.22;5109072;28;20490;-68
2022/05/13 10:18:29;;;;;;;5.10;2.00;;;;;;;17.29;44.37;100575.84;5108627;28;20455;-69
2022/05/13 10:20:59;;;;;;;4.83;1.77;;;;;;;18.43;42.81;100582.31;5109232;28;20509;-69
2022/05/13 10:23:29;;;;;;;5.00;1.70;;;;;;;19.34;41.37;100584.03;5113566;28;20466;-70
2022/05/13 10:26:01;;;;;;;6.00;2.50;;;;;;;18.57;42.43;100594.19;5107314;28;20467;-70
2022/05/13 10:28:32;;;;;;;5.40;2.00;;;;;;;20.28;39.22;100589.41;5109590;28;20451;-71
2022/05/13 10:31:04;;;;;;;5.80;2.10;;;;;;;20.84;37.19;100582.31;5111310;28;20474;-69
2022/05/13 10:33:34;;;;;;;7.37;2.70;;;;;;;19.58;40.23;100593.69;5105023;28;20631;-69
2022/05/13 10:36:05;;;;;;;5.80;2.80;;;;;;;19.44;40.20;100594.56;5110851;28;20837;-69
2022/05/13 10:38:37;;;;;;;5.77;2.40;;;;;;;19.04;40.85;100585.94;5107598;28;20887;-70
2022/05/13 10:41:19;;;;;;;8.90;2.80;;;;;;;18.50;43.10;100585.13;5099817;28;20506;-70
2022/05/13 10:43:52;;;;;;;3.87;2.07;;;;;;;18.02;42.13;100595.38;5081683;28;20792;-69
2022/05/13 10:46:24;;;;;;;6.77;1.97;;;;;;;17.99;42.83;100591.16;5085089;28;20468;-70
2022/05/13 10:48:53;;;;;;;5.90;2.10;;;;;;;18.10;42.30;100594.47;5090259;28;20481;-69
2022/05/13 10:51:23;;;;;;;4.07;1.80;;;;;;;18.52;41.58;100610.16;5090186;28;20520;-69
2022/05/13 10:54:03;;;;;;;4.40;2.30;;;;;;;18.58;42.43;100603.16;5086692;28;20447;-70
2022/05/13 10:56:36;;;;;;;9.13;2.10;;;;;;;18.17;42.58;100600.81;5087341;28;20485;-70
2022/05/13 10:59:13;;;;;;;3.40;1.90;;;;;;;17.87;44.43;100606.13;5089598;28;20460;-68
2022/05/13 11:01:49;;;;;;;3.63;2.10;;;;;;;17.97;43.22;100605.91;5084797;28;20478;-69
2022/05/13 11:04:25;;;;;;;5.57;2.03;;;;;;;17.93;43.38;100605.38;5089083;28;20496;-68
2022/05/13 11:07:01;;;;;;;5.00;2.20;;;;;;;18.76;41.26;100600.94;5088927;28;20490;-69
2022/05/13 11:09:36;;;;;;;4.57;2.00;;;;;;;18.67;41.53;100604.75;5087258;28;20463;-69
2022/05/13 11:12:09;;;;;;;2.80;2.30;;;;;;;20.79;37.38;100617.38;5086374;28;20471;-69
2022/05/13 11:14:44;;;;;;;4.43;2.03;;;;;;;20.66;37.22;100599.13;5089758;28;20785;-69
2022/05/13 11:17:26;;;;;;;5.53;2.00;;;;;;;20.19;38.19;100606.00;5095698;28;20896;-69
2022/05/13 11:20:03;;;;;;;3.43;1.97;;;;;;;19.71;38.60;100601.97;5099914;28;20443;-70
2022/05/13 11:22:33;;;;;;;6.90;2.43;;;;;;;18.71;40.67;100603.34;5099702;28;20473;-69
2022/05/13 11:28:04;;;;;;;6.50;3.10;;;;;;;17.69;43.29;100604.50;5087884;28;20506;-69
2022/05/13 11:30:40;;;;;;;6.73;2.70;;;;;;;17.63;44.02;100617.91;5093200;28;20472;-69
2022/05/13 11:33:18;;;;;;;4.97;2.33;;;;;;;17.86;43.80;100613.41;5098101;28;20512;-72
2022/05/13 11:35:51;;;;;;;8.60;3.10;;;;;;;18.47;42.36;100609.00;5089854;28;20470;-72
2022/05/13 11:38:21;;;;;;;11.93;3.17;;;;;;;18.53;41.50;100606.41;5099629;28;20496;-71
2022/05/13 11:40:57;;;;;;;5.50;2.90;;;;;;;18.75;41.07;100609.25;5114504;28;20486;-69
2022/05/13 11:43:36;;;;;;;5.10;2.13;;;;;;;18.82;41.66;100621.06;5118850;28;20438;-70
2022/05/13 11:46:34;;;;;;;6.60;2.03;;;;;;;18.79;42.09;100619.53;5117256;28;20466;-70
2022/05/13 11:49:06;;;;;;;5.37;2.50;;;;;;;18.67;41.78;100621.00;5119889;28;20819;-69
2022/05/13 11:51:35;;;;;;;4.00;2.63;;;;;;;18.06;42.42;100621.03;5119269;28;20924;-70
2022/05/13 11:54:17;;;;;;;5.70;3.27;;;;;;;17.97;43.15;100622.13;5120115;28;20467;-69
2022/05/13 11:56:46;;;;;;;6.63;3.40;;;;;;;17.94;42.76;100631.44;5116901;28;20543;-70
2022/05/13 11:59:45;;;;;;;9.40;3.40;;;;;;;18.37;43.11;100623.66;5112054;28;20444;-72